Time;durP1;ratioP1;P1;durP2;ratioP2;P2;SDS_P1;SDS_P2;PMS_P1;PMS_P2;Temp;Humidity;BMP_temperature;BMP_pressure;BME280_temperature;BME280_humidity;BME280_pressure;Samples;Min_cycle;Max_cycle;Signal;HPM_P1;HPM_P2
2023/04/07 00:00:31;;;;;;;1999.90;999.90;;;16.30;99.90;;;;;;5024155;28;20496;-66
2023/04/07 00:03:01;;;;;;;1999.90;999.90;;;16.30;99.90;;;;;;5028145;28;20068;-66
2023/04/07 00:05:28;;;;;;;1999.90;999.90;;;16.30;99.90;;;;;;5028187;28;20384;-67
2023/04/07 00:07:55;;;;;;;1999.90;999.90;;;16.30;99.90;;;;;;5022449;28;20175;-66
2023/04/07 00:10:23;;;;;;;1999.90;999.90;;;16.30;99.90;;;;;;5026799;28;20048;-66
2023/04/07 00:12:50;;;;;;;1999.90;999.90;;;16.30;99.90;;;;;;5026461;28;20551;-67
2023/04/07 00:15:17;;;;;;;1999.90;999.90;;;16.40;99.90;;;;;;5030460;28;20412;-67
2023/04/07 00:17:45;;;;;;;1999.90;999.90;;;16.40;99.90;;;;;;5026339;28;20033;-67
2023/04/07 00:20:12;;;;;;;1999.90;999.90;;;16.40;99.90;;;;;;5030797;28;20037;-68
2023/04/07 00:22:39;;;;;;;1999.90;999.90;;;16.50;99.90;;;;;;5028959;28;20446;-68
2023/04/07 00:25:07;;;;;;;1999.90;999.90;;;16.50;99.90;;;;;;5027696;28;20060;-68
2023/04/07 00:27:35;;;;;;;1999.90;999.90;;;16.60;99.90;;;;;;5033618;28;20034;-68
2023/04/07 00:30:03;;;;;;;1999.90;999.90;;;16.70;99.90;;;;;;5038614;28;20032;-66
2023/04/07 00:32:30;;;;;;;1999.90;999.90;;;16.70;99.90;;;;;;5028375;28;20128;-67
2023/04/07 00:34:57;;;;;;;1999.90;999.90;;;16.80;99.90;;;;;;5036461;28;20013;-67
2023/04/07 00:37:24;;;;;;;1999.90;999.90;;;17.00;99.90;;;;;;5040172;28;20079;-68
2023/04/07 00:39:52;;;;;;;1999.90;999.90;;;17.10;99.90;;;;;;5037659;28;20502;-68
2023/04/07 00:42:19;;;;;;;1999.90;999.90;;;17.30;99.90;;;;;;5036697;28;20052;-68
2023/04/07 00:44:47;;;;;;;1999.90;999.90;;;17.50;99.90;;;;;;5033628;28;20167;-68
2023/04/07 00:47:15;;;;;;;1999.90;999.90;;;17.70;99.90;;;;;;5036205;28;20050;-67
2023/04/07 00:49:42;;;;;;;1999.90;999.90;;;17.90;99.90;;;;;;5036958;28;20384;-68
2023/04/07 00:52:11;;;;;;;1999.90;999.90;;;18.00;99.90;;;;;;5034066;28;20036;-67
2023/04/07 00:54:41;;;;;;;1999.90;999.90;;;18.10;99.90;;;;;;5036304;28;20076;-68
2023/04/07 00:57:11;;;;;;;1999.90;999.90;;;18.10;99.90;;;;;;5024943;28;20537;-68
2023/04/07 00:59:40;;;;;;;1999.90;999.90;;;18.20;99.90;;;;;;5037639;28;20033;-68
2023/04/07 01:02:22;;;;;;;1999.90;999.90;;;18.20;99.90;;;;;;5033174;28;20410;-68
2023/04/07 01:05:05;;;;;;;1999.90;999.90;;;18.30;99.90;;;;;;5032513;28;20022;-67
2023/04/07 01:07:51;;;;;;;1999.90;999.90;;;18.30;99.90;;;;;;5031947;28;20067;-67
2023/04/07 01:10:33;;;;;;;1999.90;999.90;;;18.30;99.90;;;;;;5031050;28;20032;-68
2023/04/07 01:13:10;;;;;;;1999.90;999.90;;;18.40;99.90;;;;;;5025737;28;20059;-67
2023/04/07 01:15:40;;;;;;;1999.90;999.90;;;18.40;99.90;;;;;;5031720;28;20041;-67
2023/04/07 01:18:17;;;;;;;1999.90;999.90;;;18.70;99.90;;;;;;5030806;28;20028;-68
2023/04/07 01:20:45;;;;;;;1999.90;999.90;;;19.00;99.90;;;;;;5027119;28;20029;-69
2023/04/07 01:23:28;;;;;;;1999.90;999.90;;;19.00;99.90;;;;;;5029955;28;20090;-68
2023/04/07 01:26:05;;;;;;;1999.90;999.90;;;19.20;99.90;;;;;;5026657;28;20191;-67
2023/04/07 01:28:44;;;;;;;1999.90;999.90;;;19.20;99.90;;;;;;5030829;28;20029;-67
2023/04/07 01:31:13;;;;;;;1999.90;999.90;;;19.30;99.90;;;;;;5033102;28;20036;-69
2023/04/07 01:33:44;;;;;;;1999.90;999.90;;;19.40;99.90;;;;;;5023986;28;20538;-67
2023/04/07 01:36:13;;;;;;;1999.90;999.90;;;19.50;99.90;;;;;;5027982;28;20143;-69
2023/04/07 01:38:42;;;;;;;1999.90;999.90;;;19.80;99.90;;;;;;5031120;28;20052;-67
2023/04/07 01:41:13;;;;;;;1999.90;999.90;;;20.00;99.90;;;;;;5037537;28;20418;-69
2023/04/07 01:43:42;;;;;;;1999.90;999.90;;;20.00;99.90;;;;;;5031358;28;20039;-67
2023/04/07 01:46:10;;;;;;;1999.90;999.90;;;20.00;99.90;;;;;;5037917;28;20112;-69
2023/04/07 01:48:39;;;;;;;1999.90;999.90;;;19.90;99.90;;;;;;5031990;28;20032;-68
2023/04/07 01:51:07;;;;;;;1999.90;999.90;;;19.80;99.90;;;;;;5032129;28;20029;-69
2023/04/07 01:53:38;;;;;;;1999.90;999.90;;;19.70;99.90;;;;;;5034737;28;20405;-68
2023/04/07 01:56:06;;;;;;;1999.90;999.90;;;19.50;99.90;;;;;;5031388;28;20547;-68
2023/04/07 01:58:33;;;;;;;1999.90;999.90;;;19.50;99.90;;;;;;5032290;28;20396;-68
2023/04/07 02:01:00;;;;;;;1999.90;999.90;;;19.50;99.90;;;;;;5028486;28;20060;-68
2023/04/07 02:03:50;;;;;;;1999.90;999.90;;;19.50;99.90;;;;;;5027624;28;20036;-69
2023/04/07 02:06:22;;;;;;;1999.90;999.90;;;19.60;99.90;;;;;;5016054;28;20037;-69
2023/04/07 02:08:56;;;;;;;1999.90;999.90;;;19.60;99.90;;;;;;5026491;28;20025;-67
2023/04/07 02:11:26;;;;;;;1999.90;999.90;;;19.60;99.90;;;;;;5029278;28;20040;-68
2023/04/07 02:13:55;;;;;;;1999.90;999.90;;;20.20;99.90;;;;;;5035700;28;20029;-70
2023/04/07 02:16:23;;;;;;;1999.90;999.90;;;21.10;99.90;;;;;;5033551;28;20536;-67
2023/04/07 02:18:52;;;;;;;1999.90;999.90;;;21.80;99.90;;;;;;5031963;28;20525;-69
2023/04/07 02:21:20;;;;;;;1999.90;999.90;;;22.30;99.90;;;;;;5028630;28;20060;-68
2023/04/07 02:23:47;;;;;;;1999.90;999.90;;;22.40;99.90;;;;;;5032822;28;20037;-69
2023/04/07 02:26:15;;;;;;;1999.90;999.90;;;22.60;99.90;;;;;;5031373;28;20678;-69
2023/04/07 02:28:42;;;;;;;1999.90;999.90;;;22.40;99.90;;;;;;5027955;28;20397;-70
2023/04/07 02:31:12;;;;;;;1999.90;999.90;;;22.70;99.90;;;;;;5030991;28;20534;-69
2023/04/07 02:33:39;;;;;;;1999.90;999.90;;;23.30;99.90;;;;;;5028679;28;20056;-68
2023/04/07 02:36:07;;;;;;;1999.90;999.90;;;23.70;99.90;;;;;;5032790;28;20236;-69
2023/04/07 02:38:34;;;;;;;1999.90;999.90;;;24.00;99.90;;;;;;5029036;28;20550;-68
2023/04/07 02:41:01;;;;;;;1999.90;999.90;;;24.20;99.90;;;;;;5027859;28;20047;-68
2023/04/07 02:43:29;;;;;;;1999.90;999.90;;;24.50;99.90;;;;;;5032487;28;20028;-67
2023/04/07 02:45:56;;;;;;;1999.90;999.90;;;24.90;99.90;;;;;;5037516;28;20472;-69
2023/04/07 02:48:23;;;;;;;1999.90;999.90;;;25.20;99.90;;;;;;5028279;28;20116;-68
2023/04/07 02:50:51;;;;;;;1999.90;999.90;;;25.50;99.90;;;;;;5029622;28;20028;-69
2023/04/07 02:53:18;;;;;;;1999.90;999.90;;;25.60;99.90;;;;;;5027042;28;20025;-69
2023/04/07 02:55:46;;;;;;;1999.90;999.90;;;25.80;99.90;;;;;;5042918;28;20017;-68
2023/04/07 02:58:13;;;;;;;1999.90;999.90;;;25.80;99.90;;;;;;5030516;28;20083;-69
2023/04/07 03:00:40;;;;;;;1999.90;999.90;;;25.80;99.90;;;;;;5030242;28;20048;-69
2023/04/07 03:03:08;;;;;;;1999.90;999.90;;;25.70;99.90;;;;;;5026165;28;20048;-68
2023/04/07 03:05:35;;;;;;;1999.90;999.90;;;25.60;99.90;;;;;;5026760;28;20125;-68
2023/04/07 03:08:02;;;;;;;1999.90;999.90;;;25.70;99.90;;;;;;5028398;28;20029;-71
2023/04/07 03:10:29;;;;;;;1999.90;999.90;;;25.90;99.90;;;;;;5032383;28;20041;-68
2023/04/07 03:12:57;;;;;;;1999.90;999.90;;;26.00;99.90;;;;;;5031526;28;20036;-69
2023/04/07 03:15:24;;;;;;;1999.90;999.90;;;26.20;99.90;;;;;;5036274;28;20032;-71
2023/04/07 03:17:52;;;;;;;1999.90;999.90;;;26.30;99.90;;;;;;5031616;28;20078;-66
2023/04/07 03:20:19;;;;;;;1999.90;999.90;;;26.50;99.90;;;;;;5033653;28;20112;-67
2023/04/07 03:22:46;;;;;;;1999.90;999.90;;;26.60;99.90;;;;;;5031525;28;20037;-68
2023/04/07 03:25:14;;;;;;;1999.90;999.90;;;26.80;99.90;;;;;;5035183;28;20737;-69
2023/04/07 03:27:41;;;;;;;1999.90;999.90;;;26.90;99.90;;;;;;5031636;28;20056;-71
2023/04/07 03:30:09;;;;;;;1999.90;999.90;;;26.90;99.90;;;;;;5037787;28;20063;-71
2023/04/07 03:32:36;;;;;;;1999.90;999.90;;;27.20;99.90;;;;;;5029537;28;20032;-67
2023/04/07 03:35:04;;;;;;;1999.90;999.90;;;27.40;99.90;;;;;;5030626;28;20029;-68
2023/04/07 03:37:31;;;;;;;1999.90;999.90;;;27.40;99.90;;;;;;5031704;28;22090;-70
2023/04/07 03:39:59;;;;;;;1999.90;999.90;;;27.40;99.90;;;;;;5034249;28;20021;-70
2023/04/07 03:42:26;;;;;;;1999.90;999.90;;;27.20;99.90;;;;;;5026475;28;20037;-69
2023/04/07 03:44:53;;;;;;;1999.90;999.90;;;27.00;99.90;;;;;;5031026;28;20495;-68
2023/04/07 03:47:21;;;;;;;1999.90;999.90;;;26.80;99.90;;;;;;5033657;28;20045;-68
2023/04/07 03:49:48;;;;;;;1999.90;999.90;;;26.80;99.90;;;;;;5037057;28;20108;-69
2023/04/07 03:52:16;;;;;;;1999.90;999.90;;;26.70;99.90;;;;;;5030519;28;20036;-70
2023/04/07 03:54:44;;;;;;;1999.90;999.90;;;26.70;99.90;;;;;;5038181;28;20033;-70
2023/04/07 03:57:11;;;;;;;1999.90;999.90;;;26.90;99.90;;;;;;5029218;28;20032;-69
2023/04/07 03:59:38;;;;;;;1999.90;999.90;;;26.70;99.90;;;;;;5036335;28;20030;-68
2023/04/07 04:02:06;;;;;;;1999.90;999.90;;;26.50;99.90;;;;;;5038551;28;20060;-70
2023/04/07 04:04:33;;;;;;;1999.90;999.90;;;26.00;99.90;;;;;;5044884;28;20021;-71
2023/04/07 04:07:00;;;;;;;1999.90;999.90;;;25.60;99.90;;;;;;5033720;28;20025;-68
2023/04/07 04:09:28;;;;;;;1999.90;999.90;;;25.60;99.90;;;;;;5034850;28;20493;-69
2023/04/07 04:11:55;;;;;;;1999.90;999.90;;;25.70;99.90;;;;;;5034875;28;20435;-68
2023/04/07 04:14:23;;;;;;;1999.90;999.90;;;25.70;99.90;;;;;;5032027;28;20029;-68
2023/04/07 04:16:51;;;;;;;1999.90;999.90;;;25.90;99.90;;;;;;5020498;28;20033;-69
2023/04/07 04:19:19;;;;;;;1999.90;999.90;;;26.20;99.90;;;;;;5032499;28;20025;-69
2023/04/07 04:21:46;;;;;;;1999.90;999.90;;;26.10;99.90;;;;;;5025669;28;20587;-70
2023/04/07 04:24:13;;;;;;;1999.90;999.90;;;25.70;99.90;;;;;;5032674;28;20045;-70
2023/04/07 04:26:41;;;;;;;1999.90;999.90;;;25.20;99.90;;;;;;5030583;28;20089;-69
2023/04/07 04:29:08;;;;;;;1999.90;999.90;;;24.80;99.90;;;;;;5040225;28;20028;-70
2023/04/07 04:31:35;;;;;;;1999.90;999.90;;;24.70;99.90;;;;;;5032280;28;20033;-69
2023/04/07 04:34:03;;;;;;;1999.90;999.90;;;24.80;99.90;;;;;;5031051;28;20476;-69
2023/04/07 04:36:30;;;;;;;1999.90;999.90;;;24.90;99.90;;;;;;5034725;28;20025;-69
2023/04/07 04:38:58;;;;;;;1999.90;999.90;;;24.80;99.90;;;;;;5038245;28;20479;-69
2023/04/07 04:41:25;;;;;;;1999.90;999.90;;;24.60;99.90;;;;;;5031810;28;20033;-69
2023/04/07 04:43:52;;;;;;;1999.90;999.90;;;24.70;99.90;;;;;;5038243;28;20017;-69
2023/04/07 04:46:20;;;;;;;1999.90;999.90;;;24.70;99.90;;;;;;5030020;28;20044;-69
2023/04/07 04:48:47;;;;;;;1999.90;999.90;;;24.90;99.90;;;;;;5035553;28;20041;-69
2023/04/07 04:51:15;;;;;;;1999.90;999.90;;;25.20;99.90;;;;;;5041170;28;20029;-69
2023/04/07 04:53:42;;;;;;;1999.90;999.90;;;25.50;99.90;;;;;;5039363;28;20095;-70
2023/04/07 04:56:10;;;;;;;1999.90;999.90;;;25.60;99.90;;;;;;5026083;28;20029;-70
2023/04/07 04:58:39;;;;;;;1999.90;999.90;;;25.60;99.90;;;;;;5034283;28;20022;-69
2023/04/07 05:01:07;;;;;;;1999.90;999.90;;;25.50;99.90;;;;;;5034404;28;20040;-69
2023/04/07 05:03:34;;;;;;;1999.90;999.90;;;25.50;99.90;;;;;;5033803;28;20459;-69
2023/04/07 05:06:02;;;;;;;1999.90;999.90;;;25.50;99.90;;;;;;5038821;28;20025;-69
2023/04/07 05:08:29;;;;;;;1999.90;999.90;;;25.60;99.90;;;;;;5034736;28;20037;-68
2023/04/07 05:10:57;;;;;;;1999.90;999.90;;;25.60;99.90;;;;;;5032528;28;20476;-70
2023/04/07 05:13:24;;;;;;;1999.90;999.90;;;25.70;99.90;;;;;;5037351;28;20115;-70
2023/04/07 05:15:52;;;;;;;1999.90;999.90;;;25.70;99.90;;;;;;5038064;28;20029;-69
2023/04/07 05:18:19;;;;;;;1999.90;999.90;;;25.70;99.90;;;;;;5031050;28;20049;-68
2023/04/07 05:20:49;;;;;;;1999.90;999.90;;;25.60;99.90;;;;;;5036298;28;20387;-69
2023/04/07 05:23:16;;;;;;;1999.90;999.90;;;25.60;99.90;;;;;;5035460;28;20063;-69
2023/04/07 05:25:43;;;;;;;1999.90;999.90;;;25.80;99.90;;;;;;5032954;28;20044;-69
2023/04/07 05:28:11;;;;;;;1999.90;999.90;;;25.80;99.90;;;;;;5033251;28;20024;-70
2023/04/07 05:30:38;;;;;;;1999.90;999.90;;;25.90;99.90;;;;;;5037170;28;20426;-69
2023/04/07 05:33:05;;;;;;;1999.90;999.90;;;25.90;99.90;;;;;;5038664;28;20029;-68
2023/04/07 05:35:33;;;;;;;1999.90;999.90;;;26.00;99.90;;;;;;5036439;28;20028;-68
2023/04/07 05:38:01;;;;;;;1999.90;999.90;;;25.80;99.90;;;;;;5027469;28;20496;-67
2023/04/07 05:40:31;;;;;;;1999.90;999.90;;;25.50;99.90;;;;;;5035835;28;20040;-68
2023/04/07 05:42:59;;;;;;;1999.90;999.90;;;25.10;99.90;;;;;;5030145;28;20033;-67
2023/04/07 05:45:26;;;;;;;1999.90;999.90;;;24.90;99.90;;;;;;5030037;28;20017;-69
2023/04/07 05:47:54;;;;;;;1999.90;999.90;;;24.60;99.90;;;;;;5031336;28;20450;-70
2023/04/07 05:50:21;;;;;;;1999.90;999.90;;;24.40;99.90;;;;;;5033902;28;20017;-69
2023/04/07 05:52:48;;;;;;;1999.90;999.90;;;24.30;99.90;;;;;;5034529;28;20036;-69
2023/04/07 05:55:16;;;;;;;1999.90;999.90;;;24.20;99.90;;;;;;5034704;28;20075;-69
2023/04/07 05:57:43;;;;;;;1999.90;999.90;;;24.10;99.90;;;;;;5028299;28;20036;-68
2023/04/07 06:00:11;;;;;;;1999.90;999.90;;;23.90;99.90;;;;;;5034885;28;20108;-70
2023/04/07 06:02:39;;;;;;;1999.90;999.90;;;23.80;99.90;;;;;;5030121;28;20044;-70
2023/04/07 06:05:07;;;;;;;1999.90;999.90;;;23.80;99.90;;;;;;5034943;28;20032;-68
2023/04/07 06:07:34;;;;;;;1999.90;999.90;;;23.80;99.90;;;;;;5023645;28;20105;-69
2023/04/07 06:10:01;;;;;;;1999.90;999.90;;;24.00;99.90;;;;;;5029025;28;20022;-70
2023/04/07 06:12:29;;;;;;;1999.90;999.90;;;24.30;99.90;;;;;;5028893;28;20125;-69
2023/04/07 06:14:56;;;;;;;1999.90;999.90;;;24.90;99.90;;;;;;5035782;28;20033;-69
2023/04/07 06:17:24;;;;;;;1999.90;999.90;;;25.50;99.90;;;;;;5029336;28;20037;-68
2023/04/07 06:19:51;;;;;;;1999.90;999.90;;;25.90;99.90;;;;;;5033379;28;20053;-67
2023/04/07 06:22:19;;;;;;;1999.90;999.90;;;25.90;99.90;;;;;;5030845;28;20044;-69
2023/04/07 06:24:46;;;;;;;1999.90;999.90;;;25.50;99.90;;;;;;5023955;28;20967;-67
2023/04/07 06:27:13;;;;;;;1999.90;999.90;;;25.00;99.90;;;;;;5026207;28;20067;-67
2023/04/07 06:29:41;;;;;;;1999.90;999.90;;;24.70;99.90;;;;;;5027887;28;20480;-68
2023/04/07 06:32:08;;;;;;;1999.90;999.90;;;24.40;99.90;;;;;;5027513;28;20387;-69
2023/04/07 06:34:35;;;;;;;1999.90;999.90;;;24.20;99.90;;;;;;5033653;28;20032;-68
2023/04/07 06:37:04;;;;;;;1999.90;999.90;;;24.00;99.90;;;;;;5031191;28;20028;-69
2023/04/07 06:39:31;;;;;;;1999.90;999.90;;;23.70;99.90;;;;;;5033547;28;20239;-70
2023/04/07 06:42:00;;;;;;;1999.90;999.90;;;23.60;99.90;;;;;;5031580;28;20036;-69
2023/04/07 06:44:27;;;;;;;1999.90;999.90;;;23.40;99.90;;;;;;5031246;28;21327;-68
2023/04/07 06:46:55;;;;;;;1999.90;999.90;;;23.20;99.90;;;;;;5031614;28;20143;-68
2023/04/07 06:49:22;;;;;;;1999.90;999.90;;;22.90;99.90;;;;;;5034944;28;20448;-69
2023/04/07 06:51:49;;;;;;;1999.90;999.90;;;22.60;99.90;;;;;;5031657;28;20106;-68
2023/04/07 06:54:17;;;;;;;1999.90;999.90;;;22.00;99.90;;;;;;5040070;28;20281;-70
2023/04/07 06:56:44;;;;;;;1999.90;999.90;;;21.40;99.90;;;;;;5034116;28;20643;-69
2023/04/07 06:59:12;;;;;;;1999.90;999.90;;;21.00;99.90;;;;;;5034621;28;20079;-68
2023/04/07 07:01:39;;;;;;;1999.90;999.90;;;20.80;99.90;;;;;;5033105;28;20225;-68
2023/04/07 07:04:06;;;;;;;1999.90;999.90;;;20.70;99.90;;;;;;5034358;28;20079;-69
2023/04/07 07:06:34;;;;;;;1999.90;999.90;;;20.60;99.90;;;;;;5033167;28;20036;-69
2023/04/07 07:09:02;;;;;;;1999.90;999.90;;;20.60;99.90;;;;;;5033665;28;20074;-68
2023/04/07 07:11:30;;;;;;;1999.90;999.90;;;20.50;99.90;;;;;;5030280;28;20052;-68
2023/04/07 07:13:57;;;;;;;1999.90;999.90;;;20.60;99.90;;;;;;5033341;28;20121;-68
2023/04/07 07:16:24;;;;;;;1999.90;999.90;;;20.60;99.90;;;;;;5034472;28;20083;-67
2023/04/07 07:18:52;;;;;;;1999.90;999.90;;;20.60;99.90;;;;;;5026161;28;20033;-69
2023/04/07 07:21:20;;;;;;;1999.90;999.90;;;20.60;99.90;;;;;;5025271;28;20119;-67
2023/04/07 07:23:47;;;;;;;1999.90;999.90;;;20.60;99.90;;;;;;5029211;28;20044;-67
2023/04/07 07:26:14;;;;;;;1999.90;999.90;;;20.40;99.90;;;;;;5029634;28;20379;-68
2023/04/07 07:28:42;;;;;;;1999.90;999.90;;;20.10;99.90;;;;;;5029119;28;20038;-69
2023/04/07 07:31:12;;;;;;;1999.90;999.90;;;19.90;99.90;;;;;;5026782;28;20017;-68
2023/04/07 07:33:42;;;;;;;1999.90;999.90;;;19.80;99.90;;;;;;5031666;28;20041;-68
2023/04/07 07:36:10;;;;;;;1999.90;999.90;;;19.70;99.90;;;;;;5029932;28;20395;-68
2023/04/07 07:38:38;;;;;;;1999.90;999.90;;;19.60;99.90;;;;;;5022229;28;20071;-69
2023/04/07 07:41:07;;;;;;;1999.90;999.90;;;19.50;99.90;;;;;;5027618;28;20026;-69
2023/04/07 07:43:35;;;;;;;1999.90;999.90;;;19.50;99.90;;;;;;5026742;28;20021;-69
2023/04/07 07:46:03;;;;;;;1999.90;999.90;;;19.50;99.90;;;;;;5028287;28;20026;-68
2023/04/07 07:48:31;;;;;;;1999.90;999.90;;;19.40;99.90;;;;;;5021343;28;20152;-69
2023/04/07 07:50:58;;;;;;;1999.90;999.90;;;19.40;99.90;;;;;;5026097;28;20033;-67
2023/04/07 07:53:25;;;;;;;1999.90;999.90;;;19.40;99.90;;;;;;5021522;28;20084;-69
2023/04/07 07:55:54;;;;;;;1999.90;999.90;;;19.40;99.90;;;;;;5032704;28;20025;-69
2023/04/07 07:58:23;;;;;;;1999.90;999.90;;;19.50;99.90;;;;;;5027071;28;20538;-69
2023/04/07 08:00:50;;;;;;;1999.90;999.90;;;19.50;99.90;;;;;;5031328;28;20120;-67
2023/04/07 08:03:21;;;;;;;1999.90;999.90;;;19.60;99.90;;;;;;5028269;28;20041;-70
2023/04/07 08:05:49;;;;;;;1999.90;999.90;;;19.60;99.90;;;;;;5032793;28;20112;-66
2023/04/07 08:08:16;;;;;;;1999.90;999.90;;;19.60;99.90;;;;;;5021042;28;20036;-67
2023/04/07 08:10:43;;;;;;;1999.90;999.90;;;19.60;99.90;;;;;;5028982;28;20026;-66
2023/04/07 08:13:11;;;;;;;1999.90;999.90;;;19.70;99.90;;;;;;5025122;28;20057;-68
2023/04/07 08:15:40;;;;;;;1999.90;999.90;;;19.70;99.90;;;;;;5028175;28;20029;-68
2023/04/07 08:18:07;;;;;;;1999.90;999.90;;;19.80;99.90;;;;;;5030767;28;20030;-68
2023/04/07 08:20:35;;;;;;;1999.90;999.90;;;19.80;99.90;;;;;;5032773;28;20037;-69
2023/04/07 08:23:02;;;;;;;1999.90;999.90;;;19.90;99.90;;;;;;5021009;28;20570;-68
2023/04/07 08:25:30;;;;;;;1999.90;999.90;;;19.90;99.90;;;;;;5031872;28;20091;-69
2023/04/07 08:27:57;;;;;;;1999.90;999.90;;;19.90;99.90;;;;;;5033780;28;20029;-69
2023/04/07 08:30:24;;;;;;;1999.90;999.90;;;20.00;99.90;;;;;;5027844;28;20036;-69
2023/04/07 08:32:52;;;;;;;1999.90;999.90;;;19.90;99.90;;;;;;5026878;28;20030;-71
2023/04/07 08:35:19;;;;;;;1999.90;999.90;;;20.00;99.90;;;;;;5032455;28;20066;-69
2023/04/07 08:37:47;;;;;;;1999.90;999.90;;;20.00;99.90;;;;;;5030602;28;20103;-69
2023/04/07 08:40:15;;;;;;;1999.90;999.90;;;20.00;99.90;;;;;;5026317;28;20120;-68
2023/04/07 08:42:47;;;;;;;1999.90;999.90;;;20.10;99.90;;;;;;5028633;28;20029;-68
2023/04/07 08:45:15;;;;;;;1999.90;999.90;;;20.10;99.90;;;;;;5029923;28;20056;-68
2023/04/07 08:47:43;;;;;;;1999.90;999.90;;;20.10;99.90;;;;;;5034344;28;20057;-68
2023/04/07 08:50:16;;;;;;;1999.90;999.90;;;20.10;99.90;;;;;;5036598;28;20038;-68
2023/04/07 08:53:05;;;;;;;1999.90;999.90;;;20.00;99.90;;;;;;5032401;28;20025;-68
2023/04/07 08:55:34;;;;;;;1999.90;999.90;;;20.00;99.90;;;;;;5036798;28;20064;-67
2023/04/07 08:58:03;;;;;;;1999.90;999.90;;;19.90;99.90;;;;;;5031928;28;20121;-67
2023/04/07 09:00:31;;;;;;;1999.90;999.90;;;19.90;99.90;;;;;;5043260;28;20064;-68
2023/04/07 09:03:02;;;;;;;1999.90;999.90;;;19.90;99.90;;;;;;5034009;28;20062;-67
2023/04/07 09:05:30;;;;;;;1999.90;999.90;;;19.80;99.90;;;;;;5035195;28;20040;-68
2023/04/07 09:07:57;;;;;;;1999.90;999.90;;;19.80;99.90;;;;;;5028496;28;20033;-68
2023/04/07 09:10:25;;;;;;;1999.90;999.90;;;19.70;99.90;;;;;;5035393;28;20057;-67
2023/04/07 09:12:52;;;;;;;1999.90;999.90;;;19.70;99.90;;;;;;5033540;28;20037;-66
2023/04/07 09:15:19;;;;;;;1999.90;999.90;;;19.60;99.90;;;;;;5032616;28;20115;-67
2023/04/07 09:17:47;;;;;;;1999.90;999.90;;;19.70;99.90;;;;;;5031915;28;20457;-67
2023/04/07 09:20:15;;;;;;;1999.90;999.90;;;19.70;99.90;;;;;;5029926;28;20199;-67
2023/04/07 09:22:46;;;;;;;1999.90;999.90;;;19.70;99.90;;;;;;5022393;28;20137;-67
2023/04/07 09:25:22;;;;;;;1999.90;999.90;;;19.70;99.90;;;;;;5029044;28;20021;-70
2023/04/07 09:28:05;;;;;;;1999.90;999.90;;;19.80;99.90;;;;;;5032800;28;20061;-69
2023/04/07 09:30:33;;;;;;;1999.90;999.90;;;19.80;99.90;;;;;;5030900;28;20026;-68
2023/04/07 09:33:01;;;;;;;1999.90;999.90;;;19.80;99.90;;;;;;5025021;28;20065;-69
2023/04/07 09:35:29;;;;;;;1999.90;999.90;;;19.80;99.90;;;;;;5021831;28;20088;-68
2023/04/07 09:38:07;;;;;;;1999.90;999.90;;;19.80;99.90;;;;;;5018909;28;20040;-69
2023/04/07 09:40:39;;;;;;;1999.90;999.90;;;19.80;99.90;;;;;;5020231;28;20553;-69
2023/04/07 09:43:13;;;;;;;1999.90;999.90;;;19.80;99.90;;;;;;5031759;28;20045;-68
2023/04/07 09:45:41;;;;;;;1999.90;999.90;;;19.80;99.90;;;;;;5023461;28;20033;-68
2023/04/07 09:48:19;;;;;;;1999.90;999.90;;;19.80;99.90;;;;;;5032766;28;20144;-69
2023/04/07 09:50:50;;;;;;;1999.90;999.90;;;19.80;99.90;;;;;;5026491;28;20115;-68
2023/04/07 09:53:22;;;;;;;1999.90;999.90;;;19.80;99.90;;;;;;5033750;28;20112;-68
2023/04/07 09:56:35;;;;;;;1999.90;999.90;;;19.80;99.90;;;;;;5035919;28;20385;-68
2023/04/07 09:59:04;;;;;;;1999.90;999.90;;;19.80;99.90;;;;;;5032974;28;20488;-68
2023/04/07 10:01:34;;;;;;;1999.90;999.90;;;19.90;99.90;;;;;;5037028;28;20048;-68
2023/04/07 10:04:03;;;;;;;1999.90;999.90;;;19.90;99.90;;;;;;5024842;28;20064;-68
2023/04/07 10:06:34;;;;;;;1999.90;999.90;;;19.90;99.90;;;;;;5026998;28;20041;-67
2023/04/07 10:09:02;;;;;;;1999.90;999.90;;;19.70;99.90;;;;;;5037055;28;20056;-68
2023/04/07 10:11:31;;;;;;;1999.90;999.90;;;19.60;99.90;;;;;;5026261;28;20036;-67
2023/04/07 10:13:59;;;;;;;1999.90;999.90;;;19.50;99.90;;;;;;5033434;28;20117;-70
2023/04/07 10:16:26;;;;;;;1999.90;999.90;;;19.30;99.90;;;;;;5033330;28;20048;-68
2023/04/07 10:18:55;;;;;;;1999.90;999.90;;;19.10;99.90;;;;;;5039230;28;20036;-68
2023/04/07 10:21:23;;;;;;;1999.90;999.90;;;18.90;99.90;;;;;;5033314;28;20044;-68
2023/04/07 10:24:09;;;;;;;1999.90;999.90;;;18.70;99.90;;;;;;5031250;28;20076;-69
2023/04/07 10:26:38;;;;;;;;;;;18.60;99.90;;;;;;5035186;28;20025;-70
2023/04/07 10:29:10;;;;;;;1999.90;999.90;;;18.40;99.90;;;;;;5038561;28;19909;-68
2023/04/07 10:31:39;;;;;;;1999.90;999.90;;;18.30;99.90;;;;;;5033888;28;20034;-66
2023/04/07 10:34:06;;;;;;;1999.90;999.90;;;18.20;99.90;;;;;;5037224;28;20526;-68
2023/04/07 10:36:34;;;;;;;1999.90;999.90;;;18.10;99.90;;;;;;5032961;28;20036;-67
2023/04/07 10:39:07;;;;;;;1999.90;999.90;;;18.10;99.90;;;;;;5035159;28;20400;-68
2023/04/07 10:41:39;;;;;;;1999.90;999.90;;;18.00;99.90;;;;;;5032067;28;20091;-67
2023/04/07 10:44:08;;;;;;;1999.90;999.90;;;17.80;99.90;;;;;;5034349;28;20108;-68
2023/04/07 10:46:45;;;;;;;1999.90;999.90;;;17.70;99.90;;;;;;5031139;28;20053;-69
2023/04/07 10:49:15;;;;;;;1999.90;999.90;;;17.50;99.90;;;;;;5042560;28;20029;-66
2023/04/07 10:51:43;;;;;;;1999.90;999.90;;;17.30;99.90;;;;;;5027974;28;20056;-67
2023/04/07 10:54:21;;;;;;;1999.90;999.90;;;17.10;99.90;;;;;;5035194;28;20033;-68
2023/04/07 10:57:10;;;;;;;1999.90;999.90;;;17.10;99.90;;;;;;5030812;28;20029;-69
2023/04/07 10:59:41;;;;;;;1999.90;999.90;;;17.10;99.90;;;;;;5027302;28;20160;-69
2023/04/07 11:02:14;;;;;;;1999.90;999.90;;;17.10;99.90;;;;;;5029391;28;20045;-69
2023/04/07 11:04:46;;;;;;;1999.90;999.90;;;17.00;99.90;;;;;;5031319;28;20030;-69
2023/04/07 11:07:15;;;;;;;1999.90;999.90;;;17.00;99.90;;;;;;5029196;28;20392;-68
2023/04/07 11:09:42;;;;;;;1999.90;999.90;;;17.00;99.90;;;;;;5027240;28;20057;-68
2023/04/07 11:12:22;;;;;;;1999.90;999.90;;;16.90;99.90;;;;;;5032159;28;20071;-69
2023/04/07 11:14:50;;;;;;;1999.90;999.90;;;16.90;99.90;;;;;;5029928;28;20025;-70
2023/04/07 11:17:17;;;;;;;1999.90;999.90;;;16.80;99.90;;;;;;5036631;28;20083;-67
2023/04/07 11:19:52;;;;;;;1999.90;999.90;;;16.80;99.90;;;;;;5045603;28;20025;-68
2023/04/07 11:22:19;;;;;;;1999.90;999.90;;;16.80;99.90;;;;;;5024241;28;20389;-68
2023/04/07 11:24:47;;;;;;;1999.90;999.90;;;16.80;99.90;;;;;;5030751;28;20109;-70
2023/04/07 11:27:15;;;;;;;1999.90;999.90;;;16.80;99.90;;;;;;5032191;28;20683;-68
2023/04/07 11:29:43;;;;;;;1999.90;999.90;;;16.80;99.90;;;;;;5029784;28;20030;-69
2023/04/07 11:32:12;;;;;;;1999.90;999.90;;;16.90;99.90;;;;;;5030647;28;20021;-70
2023/04/07 11:34:39;;;;;;;1999.90;999.90;;;16.90;99.90;;;;;;5033060;28;20029;-69
2023/04/07 11:37:27;;;;;;;1999.90;999.90;;;16.90;99.90;;;;;;5030062;28;20049;-67
2023/04/07 11:39:58;;;;;;;1999.90;999.90;;;16.90;99.90;;;;;;5035562;28;20086;-68
2023/04/07 11:42:32;;;;;;;1999.90;999.90;;;17.00;99.90;;;;;;5036400;28;20123;-68
2023/04/07 11:45:00;;;;;;;1999.90;999.90;;;16.90;99.90;;;;;;5034802;28;20104;-67
2023/04/07 11:47:38;;;;;;;1999.90;999.90;;;16.80;99.90;;;;;;5035024;28;20061;-68
2023/04/07 11:50:06;;;;;;;1999.90;999.90;;;16.80;99.90;;;;;;5032891;28;20052;-68
2023/04/07 11:52:47;;;;;;;1999.90;999.90;;;16.80;99.90;;;;;;5032882;28;20041;-72
2023/04/07 11:55:18;;;;;;;1999.90;999.90;;;16.70;99.90;;;;;;5031770;28;20108;-69
2023/04/07 11:57:46;;;;;;;1999.90;999.90;;;16.50;99.90;;;;;;5029193;28;20559;-68
2023/04/07 12:00:14;;;;;;;1999.90;999.90;;;16.50;99.90;;;;;;5030649;28;20041;-68
2023/04/07 12:02:42;;;;;;;1999.90;999.90;;;16.50;99.90;;;;;;5033950;28;20048;-68
2023/04/07 12:05:09;;;;;;;1999.90;999.90;;;16.40;99.90;;;;;;5038115;28;20475;-67
2023/04/07 12:07:39;;;;;;;1999.90;999.90;;;16.30;99.90;;;;;;5031290;28;20035;-68